sensor_id;sensor_type;location;lat;lon;timestamp;P1;durP1;ratioP1;P2;durP2;ratioP2
77722;SDS011;67811;42.656;23.394;2024-01-27T00:02:34;7.73;;;2.33;;
77722;SDS011;67811;42.656;23.394;2024-01-27T00:06:40;7.25;;;1.90;;
77722;SDS011;67811;42.656;23.394;2024-01-27T00:10:45;4.63;;;1.93;;
77722;SDS011;67811;42.656;23.394;2024-01-27T00:14:51;3.87;;;1.97;;
77722;SDS011;67811;42.656;23.394;2024-01-27T00:18:56;3.33;;;1.53;;
77722;SDS011;67811;42.656;23.394;2024-01-27T00:23:01;4.87;;;1.80;;
77722;SDS011;67811;42.656;23.394;2024-01-27T00:27:07;6.20;;;1.77;;
77722;SDS011;67811;42.656;23.394;2024-01-27T00:31:12;5.07;;;1.83;;
77722;SDS011;67811;42.656;23.394;2024-01-27T00:35:17;7.20;;;3.00;;
77722;SDS011;67811;42.656;23.394;2024-01-27T00:39:23;4.47;;;1.90;;
77722;SDS011;67811;42.656;23.394;2024-01-27T00:43:28;8.27;;;3.50;;
77722;SDS011;67811;42.656;23.394;2024-01-27T00:47:33;9.80;;;3.80;;
77722;SDS011;67811;42.656;23.394;2024-01-27T00:51:38;8.87;;;4.10;;
77722;SDS011;67811;42.656;23.394;2024-01-27T00:55:44;8.73;;;3.80;;
77722;SDS011;67811;42.656;23.394;2024-01-27T00:59:49;7.90;;;3.50;;
77722;SDS011;67811;42.656;23.394;2024-01-27T01:03:54;9.33;;;4.33;;
77722;SDS011;67811;42.656;23.394;2024-01-27T01:07:59;9.00;;;3.90;;
77722;SDS011;67811;42.656;23.394;2024-01-27T01:12:05;11.43;;;5.03;;
77722;SDS011;67811;42.656;23.394;2024-01-27T01:16:10;9.45;;;4.85;;
77722;SDS011;67811;42.656;23.394;2024-01-27T01:20:16;8.67;;;3.77;;
77722;SDS011;67811;42.656;23.394;2024-01-27T01:24:21;8.37;;;3.60;;
77722;SDS011;67811;42.656;23.394;2024-01-27T01:28:26;7.30;;;3.50;;
77722;SDS011;67811;42.656;23.394;2024-01-27T01:32:31;7.07;;;3.87;;
77722;SDS011;67811;42.656;23.394;2024-01-27T01:36:37;9.17;;;3.67;;
77722;SDS011;67811;42.656;23.394;2024-01-27T01:40:42;11.80;;;4.73;;
77722;SDS011;67811;42.656;23.394;2024-01-27T01:44:47;12.43;;;3.53;;
77722;SDS011;67811;42.656;23.394;2024-01-27T01:48:53;9.73;;;4.17;;
77722;SDS011;67811;42.656;23.394;2024-01-27T01:52:58;10.93;;;4.00;;
77722;SDS011;67811;42.656;23.394;2024-01-27T01:57:04;7.55;;;3.92;;
77722;SDS011;67811;42.656;23.394;2024-01-27T02:01:10;12.98;;;4.30;;
77722;SDS011;67811;42.656;23.394;2024-01-27T02:05:15;9.53;;;3.70;;
77722;SDS011;67811;42.656;23.394;2024-01-27T02:09:20;9.07;;;3.87;;
77722;SDS011;67811;42.656;23.394;2024-01-27T02:13:26;11.73;;;4.23;;
77722;SDS011;67811;42.656;23.394;2024-01-27T02:17:31;1.83;;;1.17;;
77722;SDS011;67811;42.656;23.394;2024-01-27T02:21:36;1.83;;;1.27;;
77722;SDS011;67811;42.656;23.394;2024-01-27T02:25:41;8.40;;;3.40;;
77722;SDS011;67811;42.656;23.394;2024-01-27T02:29:47;10.17;;;4.23;;
77722;SDS011;67811;42.656;23.394;2024-01-27T02:33:52;7.53;;;3.43;;
77722;SDS011;67811;42.656;23.394;2024-01-27T02:37:57;7.73;;;3.57;;
77722;SDS011;67811;42.656;23.394;2024-01-27T02:42:03;7.83;;;3.83;;
77722;SDS011;67811;42.656;23.394;2024-01-27T02:46:09;8.48;;;3.80;;
77722;SDS011;67811;42.656;23.394;2024-01-27T02:50:16;9.43;;;3.97;;
77722;SDS011;67811;42.656;23.394;2024-01-27T02:54:21;7.27;;;3.43;;
77722;SDS011;67811;42.656;23.394;2024-01-27T02:58:27;9.30;;;4.07;;
77722;SDS011;67811;42.656;23.394;2024-01-27T03:02:32;8.80;;;3.37;;
77722;SDS011;67811;42.656;23.394;2024-01-27T03:06:37;8.50;;;3.93;;
77722;SDS011;67811;42.656;23.394;2024-01-27T03:10:43;9.07;;;3.93;;
77722;SDS011;67811;42.656;23.394;2024-01-27T03:14:48;9.53;;;4.37;;
77722;SDS011;67811;42.656;23.394;2024-01-27T03:18:53;8.53;;;3.80;;
77722;SDS011;67811;42.656;23.394;2024-01-27T03:22:59;10.30;;;3.83;;
77722;SDS011;67811;42.656;23.394;2024-01-27T03:27:04;9.20;;;3.73;;
77722;SDS011;67811;42.656;23.394;2024-01-27T03:31:09;9.63;;;3.43;;
77722;SDS011;67811;42.656;23.394;2024-01-27T03:35:15;8.90;;;3.90;;
77722;SDS011;67811;42.656;23.394;2024-01-27T03:39:20;9.53;;;3.73;;
77722;SDS011;67811;42.656;23.394;2024-01-27T03:43:25;5.70;;;3.27;;
77722;SDS011;67811;42.656;23.394;2024-01-27T03:47:30;8.23;;;3.37;;
77722;SDS011;67811;42.656;23.394;2024-01-27T03:51:36;8.57;;;4.23;;
77722;SDS011;67811;42.656;23.394;2024-01-27T03:55:41;7.33;;;3.47;;
77722;SDS011;67811;42.656;23.394;2024-01-27T03:59:46;10.03;;;3.50;;
77722;SDS011;67811;42.656;23.394;2024-01-27T04:03:52;5.67;;;2.47;;
77722;SDS011;67811;42.656;23.394;2024-01-27T04:07:57;7.67;;;3.17;;
77722;SDS011;67811;42.656;23.394;2024-01-27T04:12:02;6.07;;;2.60;;
77722;SDS011;67811;42.656;23.394;2024-01-27T04:16:08;8.73;;;2.90;;
77722;SDS011;67811;42.656;23.394;2024-01-27T04:20:13;5.30;;;2.40;;
77722;SDS011;67811;42.656;23.394;2024-01-27T04:24:18;6.57;;;1.90;;
77722;SDS011;67811;42.656;23.394;2024-01-27T04:28:23;4.27;;;1.50;;
77722;SDS011;67811;42.656;23.394;2024-01-27T04:32:29;4.03;;;1.47;;
77722;SDS011;67811;42.656;23.394;2024-01-27T04:36:34;6.33;;;1.90;;
77722;SDS011;67811;42.656;23.394;2024-01-27T04:40:39;5.67;;;1.63;;
77722;SDS011;67811;42.656;23.394;2024-01-27T04:44:45;4.67;;;1.80;;
77722;SDS011;67811;42.656;23.394;2024-01-27T04:48:50;5.07;;;1.93;;
77722;SDS011;67811;42.656;23.394;2024-01-27T04:52:55;4.50;;;1.90;;
77722;SDS011;67811;42.656;23.394;2024-01-27T04:57:01;5.53;;;1.70;;
77722;SDS011;67811;42.656;23.394;2024-01-27T05:01:06;6.10;;;1.97;;
77722;SDS011;67811;42.656;23.394;2024-01-27T05:05:11;5.13;;;1.90;;
77722;SDS011;67811;42.656;23.394;2024-01-27T05:09:17;6.38;;;2.20;;
77722;SDS011;67811;42.656;23.394;2024-01-27T05:13:22;5.47;;;2.13;;
77722;SDS011;67811;42.656;23.394;2024-01-27T05:17:28;6.33;;;2.47;;
77722;SDS011;67811;42.656;23.394;2024-01-27T05:21:33;8.13;;;2.67;;
77722;SDS011;67811;42.656;23.394;2024-01-27T05:25:38;4.93;;;2.37;;
77722;SDS011;67811;42.656;23.394;2024-01-27T05:29:43;6.00;;;3.10;;
77722;SDS011;67811;42.656;23.394;2024-01-27T05:33:49;7.77;;;2.63;;
77722;SDS011;67811;42.656;23.394;2024-01-27T05:37:54;5.47;;;2.30;;
77722;SDS011;67811;42.656;23.394;2024-01-27T05:41:59;5.60;;;2.50;;
77722;SDS011;67811;42.656;23.394;2024-01-27T05:46:04;6.37;;;2.80;;
77722;SDS011;67811;42.656;23.394;2024-01-27T05:50:10;6.00;;;3.27;;
77722;SDS011;67811;42.656;23.394;2024-01-27T05:54:15;7.43;;;3.00;;
77722;SDS011;67811;42.656;23.394;2024-01-27T05:58:20;11.43;;;3.37;;
77722;SDS011;67811;42.656;23.394;2024-01-27T06:02:26;7.97;;;3.50;;
77722;SDS011;67811;42.656;23.394;2024-01-27T06:06:31;9.23;;;4.07;;
77722;SDS011;67811;42.656;23.394;2024-01-27T06:10:36;8.17;;;4.00;;
77722;SDS011;67811;42.656;23.394;2024-01-27T06:14:41;7.77;;;4.20;;
77722;SDS011;67811;42.656;23.394;2024-01-27T06:18:47;8.93;;;3.90;;
77722;SDS011;67811;42.656;23.394;2024-01-27T06:22:52;9.00;;;4.37;;
77722;SDS011;67811;42.656;23.394;2024-01-27T06:26:57;8.43;;;4.33;;
77722;SDS011;67811;42.656;23.394;2024-01-27T06:31:03;9.00;;;3.80;;
77722;SDS011;67811;42.656;23.394;2024-01-27T06:35:09;7.30;;;3.63;;
77722;SDS011;67811;42.656;23.394;2024-01-27T06:39:14;5.47;;;3.00;;
77722;SDS011;67811;42.656;23.394;2024-01-27T06:43:20;6.30;;;3.37;;
77722;SDS011;67811;42.656;23.394;2024-01-27T06:47:25;5.70;;;2.90;;
77722;SDS011;67811;42.656;23.394;2024-01-27T06:51:30;8.33;;;2.43;;
77722;SDS011;67811;42.656;23.394;2024-01-27T06:55:35;3.47;;;1.63;;
77722;SDS011;67811;42.656;23.394;2024-01-27T06:59:41;4.00;;;1.57;;
77722;SDS011;67811;42.656;23.394;2024-01-27T07:03:46;2.97;;;1.13;;
77722;SDS011;67811;42.656;23.394;2024-01-27T07:07:51;2.40;;;1.20;;
77722;SDS011;67811;42.656;23.394;2024-01-27T07:11:57;2.23;;;0.97;;
77722;SDS011;67811;42.656;23.394;2024-01-27T07:16:02;3.03;;;1.40;;
77722;SDS011;67811;42.656;23.394;2024-01-27T07:20:08;2.13;;;1.02;;
77722;SDS011;67811;42.656;23.394;2024-01-27T07:24:13;3.70;;;1.60;;
77722;SDS011;67811;42.656;23.394;2024-01-27T07:28:19;4.03;;;2.07;;
77722;SDS011;67811;42.656;23.394;2024-01-27T07:32:24;4.30;;;1.37;;
77722;SDS011;67811;42.656;23.394;2024-01-27T07:36:29;3.93;;;1.77;;
77722;SDS011;67811;42.656;23.394;2024-01-27T07:40:34;3.07;;;1.53;;
77722;SDS011;67811;42.656;23.394;2024-01-27T07:44:40;4.23;;;1.60;;
77722;SDS011;67811;42.656;23.394;2024-01-27T07:48:45;2.80;;;1.30;;
77722;SDS011;67811;42.656;23.394;2024-01-27T07:52:50;6.73;;;1.70;;
77722;SDS011;67811;42.656;23.394;2024-01-27T07:56:55;4.67;;;2.13;;
77722;SDS011;67811;42.656;23.394;2024-01-27T08:01:01;4.50;;;1.80;;
77722;SDS011;67811;42.656;23.394;2024-01-27T08:05:06;4.20;;;2.27;;
77722;SDS011;67811;42.656;23.394;2024-01-27T08:09:12;3.67;;;1.95;;
77722;SDS011;67811;42.656;23.394;2024-01-27T08:13:17;4.50;;;2.60;;
77722;SDS011;67811;42.656;23.394;2024-01-27T08:17:22;3.47;;;1.90;;
77722;SDS011;67811;42.656;23.394;2024-01-27T08:21:28;4.43;;;2.63;;
77722;SDS011;67811;42.656;23.394;2024-01-27T08:25:33;4.73;;;2.90;;
77722;SDS011;67811;42.656;23.394;2024-01-27T08:29:38;4.47;;;2.43;;
77722;SDS011;67811;42.656;23.394;2024-01-27T08:33:45;4.53;;;2.47;;
77722;SDS011;67811;42.656;23.394;2024-01-27T08:37:50;3.87;;;2.20;;
77722;SDS011;67811;42.656;23.394;2024-01-27T08:41:55;6.87;;;2.53;;
77722;SDS011;67811;42.656;23.394;2024-01-27T08:46:00;8.60;;;2.57;;
77722;SDS011;67811;42.656;23.394;2024-01-27T08:50:06;5.03;;;2.27;;
77722;SDS011;67811;42.656;23.394;2024-01-27T08:54:11;5.07;;;2.40;;
77722;SDS011;67811;42.656;23.394;2024-01-27T08:58:17;4.13;;;2.03;;
77722;SDS011;67811;42.656;23.394;2024-01-27T09:02:22;7.47;;;2.30;;
77722;SDS011;67811;42.656;23.394;2024-01-27T09:06:27;3.93;;;2.00;;
77722;SDS011;67811;42.656;23.394;2024-01-27T09:10:33;4.03;;;2.00;;
77722;SDS011;67811;42.656;23.394;2024-01-27T09:14:38;3.20;;;1.87;;
77722;SDS011;67811;42.656;23.394;2024-01-27T09:18:43;3.23;;;1.77;;
77722;SDS011;67811;42.656;23.394;2024-01-27T09:22:49;3.43;;;2.10;;
77722;SDS011;67811;42.656;23.394;2024-01-27T09:26:54;4.77;;;2.10;;
77722;SDS011;67811;42.656;23.394;2024-01-27T09:30:59;3.70;;;1.87;;
77722;SDS011;67811;42.656;23.394;2024-01-27T09:35:04;3.70;;;1.70;;
77722;SDS011;67811;42.656;23.394;2024-01-27T09:39:10;4.13;;;2.17;;
77722;SDS011;67811;42.656;23.394;2024-01-27T09:43:15;6.30;;;2.63;;
77722;SDS011;67811;42.656;23.394;2024-01-27T09:47:23;3.80;;;1.83;;
77722;SDS011;67811;42.656;23.394;2024-01-27T09:51:28;4.03;;;1.90;;
77722;SDS011;67811;42.656;23.394;2024-01-27T09:55:33;4.67;;;2.27;;
77722;SDS011;67811;42.656;23.394;2024-01-27T09:59:40;4.27;;;1.50;;
77722;SDS011;67811;42.656;23.394;2024-01-27T10:03:46;4.53;;;2.15;;
77722;SDS011;67811;42.656;23.394;2024-01-27T10:07:52;2.95;;;1.48;;
77722;SDS011;67811;42.656;23.394;2024-01-27T10:11:57;3.80;;;2.13;;
77722;SDS011;67811;42.656;23.394;2024-01-27T10:16:06;4.63;;;2.10;;
77722;SDS011;67811;42.656;23.394;2024-01-27T10:20:12;3.03;;;1.50;;
77722;SDS011;67811;42.656;23.394;2024-01-27T10:24:18;4.73;;;2.63;;
77722;SDS011;67811;42.656;23.394;2024-01-27T10:28:23;2.73;;;1.60;;
77722;SDS011;67811;42.656;23.394;2024-01-27T10:32:28;5.27;;;2.03;;
77722;SDS011;67811;42.656;23.394;2024-01-27T10:36:43;4.17;;;2.03;;
77722;SDS011;67811;42.656;23.394;2024-01-27T10:40:49;3.90;;;2.08;;
77722;SDS011;67811;42.656;23.394;2024-01-27T10:44:55;3.97;;;2.03;;
77722;SDS011;67811;42.656;23.394;2024-01-27T10:49:03;3.85;;;1.35;;
77722;SDS011;67811;42.656;23.394;2024-01-27T10:53:19;3.45;;;1.80;;
77722;SDS011;67811;42.656;23.394;2024-01-27T10:57:27;4.70;;;2.28;;
77722;SDS011;67811;42.656;23.394;2024-01-27T11:01:35;4.10;;;1.80;;
77722;SDS011;67811;42.656;23.394;2024-01-27T11:05:42;2.95;;;1.55;;
77722;SDS011;67811;42.656;23.394;2024-01-27T11:09:49;4.13;;;2.10;;
77722;SDS011;67811;42.656;23.394;2024-01-27T11:13:55;18.20;;;2.75;;
77722;SDS011;67811;42.656;23.394;2024-01-27T11:18:00;3.33;;;2.17;;
77722;SDS011;67811;42.656;23.394;2024-01-27T11:22:06;7.05;;;2.50;;
77722;SDS011;67811;42.656;23.394;2024-01-27T11:26:16;5.40;;;2.53;;
77722;SDS011;67811;42.656;23.394;2024-01-27T11:34:52;4.65;;;1.88;;
77722;SDS011;67811;42.656;23.394;2024-01-27T11:38:57;5.28;;;2.38;;
77722;SDS011;67811;42.656;23.394;2024-01-27T11:43:02;5.93;;;2.60;;
77722;SDS011;67811;42.656;23.394;2024-01-27T11:47:18;3.30;;;2.17;;
77722;SDS011;67811;42.656;23.394;2024-01-27T11:51:24;4.10;;;2.58;;
77722;SDS011;67811;42.656;23.394;2024-01-27T11:55:30;3.85;;;2.42;;
77722;SDS011;67811;42.656;23.394;2024-01-27T11:59:35;3.93;;;2.63;;
77722;SDS011;67811;42.656;23.394;2024-01-27T12:03:40;3.83;;;2.07;;
77722;SDS011;67811;42.656;23.394;2024-01-27T12:07:46;4.00;;;2.27;;
77722;SDS011;67811;42.656;23.394;2024-01-27T12:11:51;4.07;;;2.07;;
77722;SDS011;67811;42.656;23.394;2024-01-27T12:15:56;6.80;;;2.40;;
77722;SDS011;67811;42.656;23.394;2024-01-27T12:20:02;4.13;;;2.33;;
77722;SDS011;67811;42.656;23.394;2024-01-27T12:24:19;4.05;;;2.60;;
77722;SDS011;67811;42.656;23.394;2024-01-27T12:28:24;3.67;;;2.63;;
77722;SDS011;67811;42.656;23.394;2024-01-27T12:32:30;5.10;;;2.83;;
77722;SDS011;67811;42.656;23.394;2024-01-27T12:36:39;5.45;;;2.30;;
77722;SDS011;67811;42.656;23.394;2024-01-27T12:40:48;7.18;;;2.50;;
77722;SDS011;67811;42.656;23.394;2024-01-27T12:44:53;3.47;;;2.03;;
77722;SDS011;67811;42.656;23.394;2024-01-27T12:48:59;4.60;;;2.70;;
77722;SDS011;67811;42.656;23.394;2024-01-27T12:53:04;3.70;;;2.53;;
77722;SDS011;67811;42.656;23.394;2024-01-27T12:57:09;7.90;;;2.67;;
77722;SDS011;67811;42.656;23.394;2024-01-27T13:01:15;6.37;;;2.47;;
77722;SDS011;67811;42.656;23.394;2024-01-27T13:05:20;3.63;;;2.03;;
77722;SDS011;67811;42.656;23.394;2024-01-27T13:09:25;5.50;;;2.30;;
77722;SDS011;67811;42.656;23.394;2024-01-27T13:13:31;3.10;;;1.70;;
77722;SDS011;67811;42.656;23.394;2024-01-27T13:17:36;3.43;;;1.67;;
77722;SDS011;67811;42.656;23.394;2024-01-27T13:21:41;2.97;;;1.50;;
77722;SDS011;67811;42.656;23.394;2024-01-27T13:25:46;6.70;;;2.00;;
77722;SDS011;67811;42.656;23.394;2024-01-27T13:29:52;6.70;;;2.77;;
77722;SDS011;67811;42.656;23.394;2024-01-27T13:33:57;2.77;;;1.47;;
77722;SDS011;67811;42.656;23.394;2024-01-27T13:38:02;4.00;;;1.98;;
77722;SDS011;67811;42.656;23.394;2024-01-27T13:42:08;4.30;;;1.80;;
77722;SDS011;67811;42.656;23.394;2024-01-27T13:46:13;4.07;;;2.13;;
77722;SDS011;67811;42.656;23.394;2024-01-27T13:50:19;3.40;;;1.67;;
77722;SDS011;67811;42.656;23.394;2024-01-27T13:54:24;3.50;;;1.63;;
77722;SDS011;67811;42.656;23.394;2024-01-27T13:58:29;4.13;;;1.90;;
77722;SDS011;67811;42.656;23.394;2024-01-27T14:02:34;5.83;;;1.93;;
77722;SDS011;67811;42.656;23.394;2024-01-27T14:06:40;3.50;;;1.50;;
77722;SDS011;67811;42.656;23.394;2024-01-27T14:10:45;6.13;;;1.80;;
77722;SDS011;67811;42.656;23.394;2024-01-27T14:14:50;4.00;;;1.97;;
77722;SDS011;67811;42.656;23.394;2024-01-27T14:18:56;3.20;;;1.50;;
77722;SDS011;67811;42.656;23.394;2024-01-27T14:23:01;3.43;;;1.47;;
77722;SDS011;67811;42.656;23.394;2024-01-27T14:27:06;3.60;;;1.70;;
77722;SDS011;67811;42.656;23.394;2024-01-27T14:31:13;3.40;;;1.48;;
77722;SDS011;67811;42.656;23.394;2024-01-27T14:35:18;4.17;;;1.70;;
77722;SDS011;67811;42.656;23.394;2024-01-27T14:39:23;2.50;;;1.20;;
77722;SDS011;67811;42.656;23.394;2024-01-27T14:43:29;3.73;;;1.43;;
77722;SDS011;67811;42.656;23.394;2024-01-27T14:47:34;4.47;;;1.33;;
77722;SDS011;67811;42.656;23.394;2024-01-27T14:51:39;2.90;;;1.60;;
77722;SDS011;67811;42.656;23.394;2024-01-27T14:55:44;3.37;;;1.43;;
77722;SDS011;67811;42.656;23.394;2024-01-27T14:59:50;5.43;;;1.30;;
77722;SDS011;67811;42.656;23.394;2024-01-27T15:03:55;4.53;;;1.60;;
77722;SDS011;67811;42.656;23.394;2024-01-27T15:08:00;3.00;;;1.20;;
77722;SDS011;67811;42.656;23.394;2024-01-27T15:12:06;4.30;;;1.60;;
77722;SDS011;67811;42.656;23.394;2024-01-27T15:16:11;2.80;;;1.30;;
77722;SDS011;67811;42.656;23.394;2024-01-27T15:20:17;2.60;;;1.13;;
77722;SDS011;67811;42.656;23.394;2024-01-27T15:24:22;3.77;;;1.70;;
77722;SDS011;67811;42.656;23.394;2024-01-27T15:28:27;4.30;;;1.50;;
77722;SDS011;67811;42.656;23.394;2024-01-27T15:32:33;3.83;;;1.80;;
77722;SDS011;67811;42.656;23.394;2024-01-27T15:36:38;4.43;;;1.83;;
77722;SDS011;67811;42.656;23.394;2024-01-27T15:40:43;5.00;;;1.70;;
77722;SDS011;67811;42.656;23.394;2024-01-27T15:44:48;4.73;;;2.03;;
77722;SDS011;67811;42.656;23.394;2024-01-27T15:48:54;3.67;;;1.63;;
77722;SDS011;67811;42.656;23.394;2024-01-27T15:52:59;4.70;;;1.70;;
77722;SDS011;67811;42.656;23.394;2024-01-27T15:57:04;5.67;;;1.93;;
77722;SDS011;67811;42.656;23.394;2024-01-27T16:01:10;3.57;;;1.30;;
77722;SDS011;67811;42.656;23.394;2024-01-27T16:05:15;3.80;;;1.50;;
77722;SDS011;67811;42.656;23.394;2024-01-27T16:09:22;4.43;;;1.90;;
77722;SDS011;67811;42.656;23.394;2024-01-27T16:13:27;5.37;;;2.57;;
77722;SDS011;67811;42.656;23.394;2024-01-27T16:17:32;4.33;;;1.43;;
77722;SDS011;67811;42.656;23.394;2024-01-27T16:21:38;3.97;;;1.70;;
77722;SDS011;67811;42.656;23.394;2024-01-27T16:25:43;3.43;;;1.50;;
77722;SDS011;67811;42.656;23.394;2024-01-27T16:29:48;6.83;;;1.87;;
77722;SDS011;67811;42.656;23.394;2024-01-27T16:33:54;5.50;;;2.03;;
77722;SDS011;67811;42.656;23.394;2024-01-27T16:37:59;2.63;;;1.23;;
77722;SDS011;67811;42.656;23.394;2024-01-27T16:42:04;4.30;;;2.03;;
77722;SDS011;67811;42.656;23.394;2024-01-27T16:46:10;8.13;;;1.90;;
77722;SDS011;67811;42.656;23.394;2024-01-27T16:50:15;5.45;;;2.00;;
77722;SDS011;67811;42.656;23.394;2024-01-27T16:54:21;2.83;;;1.30;;
77722;SDS011;67811;42.656;23.394;2024-01-27T16:58:26;6.17;;;1.83;;
77722;SDS011;67811;42.656;23.394;2024-01-27T17:02:31;4.60;;;1.67;;
77722;SDS011;67811;42.656;23.394;2024-01-27T17:06:36;3.93;;;1.80;;
77722;SDS011;67811;42.656;23.394;2024-01-27T17:10:42;6.53;;;2.13;;
77722;SDS011;67811;42.656;23.394;2024-01-27T17:14:47;4.93;;;1.80;;
77722;SDS011;67811;42.656;23.394;2024-01-27T17:18:52;4.03;;;1.40;;
77722;SDS011;67811;42.656;23.394;2024-01-27T17:22:58;3.00;;;1.57;;
77722;SDS011;67811;42.656;23.394;2024-01-27T17:27:03;8.33;;;2.93;;
77722;SDS011;67811;42.656;23.394;2024-01-27T17:31:08;3.28;;;1.65;;
77722;SDS011;67811;42.656;23.394;2024-01-27T17:35:14;2.33;;;1.23;;
77722;SDS011;67811;42.656;23.394;2024-01-27T17:39:19;3.33;;;1.67;;
77722;SDS011;67811;42.656;23.394;2024-01-27T17:43:24;2.80;;;1.53;;
77722;SDS011;67811;42.656;23.394;2024-01-27T17:47:30;4.10;;;1.73;;
77722;SDS011;67811;42.656;23.394;2024-01-27T17:51:35;3.45;;;1.65;;
77722;SDS011;67811;42.656;23.394;2024-01-27T17:55:42;6.03;;;2.13;;
77722;SDS011;67811;42.656;23.394;2024-01-27T17:59:48;4.05;;;1.63;;
77722;SDS011;67811;42.656;23.394;2024-01-27T18:03:53;4.87;;;1.97;;
77722;SDS011;67811;42.656;23.394;2024-01-27T18:07:58;5.10;;;2.10;;
77722;SDS011;67811;42.656;23.394;2024-01-27T18:12:03;3.00;;;1.40;;
77722;SDS011;67811;42.656;23.394;2024-01-27T18:16:09;2.83;;;1.50;;
77722;SDS011;67811;42.656;23.394;2024-01-27T18:20:14;4.23;;;1.37;;
77722;SDS011;67811;42.656;23.394;2024-01-27T18:24:19;3.00;;;1.50;;
77722;SDS011;67811;42.656;23.394;2024-01-27T18:28:25;3.00;;;1.47;;
77722;SDS011;67811;42.656;23.394;2024-01-27T18:32:30;3.83;;;1.80;;
77722;SDS011;67811;42.656;23.394;2024-01-27T18:36:35;4.33;;;2.00;;
77722;SDS011;67811;42.656;23.394;2024-01-27T18:40:41;5.77;;;2.23;;
77722;SDS011;67811;42.656;23.394;2024-01-27T18:44:46;6.10;;;2.93;;
77722;SDS011;67811;42.656;23.394;2024-01-27T18:48:51;3.53;;;1.80;;
77722;SDS011;67811;42.656;23.394;2024-01-27T18:52:56;4.50;;;2.00;;
77722;SDS011;67811;42.656;23.394;2024-01-27T18:57:02;3.70;;;1.87;;
77722;SDS011;67811;42.656;23.394;2024-01-27T19:01:07;2.95;;;1.67;;
77722;SDS011;67811;42.656;23.394;2024-01-27T19:05:12;5.93;;;2.43;;
77722;SDS011;67811;42.656;23.394;2024-01-27T19:09:18;5.07;;;2.00;;
77722;SDS011;67811;42.656;23.394;2024-01-27T19:13:23;4.33;;;1.80;;
77722;SDS011;67811;42.656;23.394;2024-01-27T19:17:28;5.93;;;2.43;;
77722;SDS011;67811;42.656;23.394;2024-01-27T19:21:34;4.47;;;1.70;;
77722;SDS011;67811;42.656;23.394;2024-01-27T19:25:39;4.03;;;2.00;;
77722;SDS011;67811;42.656;23.394;2024-01-27T19:29:44;3.65;;;1.75;;
77722;SDS011;67811;42.656;23.394;2024-01-27T19:33:50;5.37;;;2.00;;
77722;SDS011;67811;42.656;23.394;2024-01-27T19:37:55;3.77;;;1.60;;
77722;SDS011;67811;42.656;23.394;2024-01-27T19:42:00;4.03;;;2.00;;
77722;SDS011;67811;42.656;23.394;2024-01-27T19:46:06;5.00;;;1.97;;
77722;SDS011;67811;42.656;23.394;2024-01-27T19:50:14;2.38;;;1.15;;
77722;SDS011;67811;42.656;23.394;2024-01-27T19:54:19;5.00;;;1.70;;
77722;SDS011;67811;42.656;23.394;2024-01-27T19:58:24;3.80;;;1.70;;
77722;SDS011;67811;42.656;23.394;2024-01-27T20:02:29;4.20;;;1.60;;
77722;SDS011;67811;42.656;23.394;2024-01-27T20:06:35;5.43;;;1.50;;
77722;SDS011;67811;42.656;23.394;2024-01-27T20:10:40;3.80;;;1.43;;
77722;SDS011;67811;42.656;23.394;2024-01-27T20:14:45;2.80;;;1.20;;
77722;SDS011;67811;42.656;23.394;2024-01-27T20:18:51;4.50;;;1.50;;
77722;SDS011;67811;42.656;23.394;2024-01-27T20:22:56;3.77;;;1.60;;
77722;SDS011;67811;42.656;23.394;2024-01-27T20:27:01;4.13;;;1.50;;
77722;SDS011;67811;42.656;23.394;2024-01-27T20:31:06;3.67;;;2.10;;
77722;SDS011;67811;42.656;23.394;2024-01-27T20:35:12;3.70;;;1.40;;
77722;SDS011;67811;42.656;23.394;2024-01-27T20:39:17;3.57;;;1.70;;
77722;SDS011;67811;42.656;23.394;2024-01-27T20:43:22;2.73;;;1.20;;
77722;SDS011;67811;42.656;23.394;2024-01-27T20:47:28;2.23;;;1.10;;
77722;SDS011;67811;42.656;23.394;2024-01-27T20:51:33;4.27;;;1.53;;
77722;SDS011;67811;42.656;23.394;2024-01-27T20:55:39;3.10;;;1.53;;
77722;SDS011;67811;42.656;23.394;2024-01-27T20:59:45;3.90;;;1.60;;
77722;SDS011;67811;42.656;23.394;2024-01-27T21:03:50;2.40;;;0.97;;
77722;SDS011;67811;42.656;23.394;2024-01-27T21:07:55;3.00;;;1.50;;
77722;SDS011;67811;42.656;23.394;2024-01-27T21:12:01;6.97;;;2.27;;
77722;SDS011;67811;42.656;23.394;2024-01-27T21:16:06;1.50;;;0.88;;
77722;SDS011;67811;42.656;23.394;2024-01-27T21:20:12;4.33;;;1.50;;
77722;SDS011;67811;42.656;23.394;2024-01-27T21:24:17;8.43;;;1.58;;
77722;SDS011;67811;42.656;23.394;2024-01-27T21:28:22;2.43;;;1.23;;
77722;SDS011;67811;42.656;23.394;2024-01-27T21:32:28;3.87;;;1.60;;
77722;SDS011;67811;42.656;23.394;2024-01-27T21:36:33;4.40;;;1.92;;
77722;SDS011;67811;42.656;23.394;2024-01-27T21:40:39;3.30;;;1.33;;
77722;SDS011;67811;42.656;23.394;2024-01-27T21:44:44;5.73;;;1.93;;
77722;SDS011;67811;42.656;23.394;2024-01-27T21:48:50;3.27;;;1.50;;
77722;SDS011;67811;42.656;23.394;2024-01-27T21:52:55;3.15;;;1.52;;
77722;SDS011;67811;42.656;23.394;2024-01-27T21:57:01;5.33;;;1.40;;
77722;SDS011;67811;42.656;23.394;2024-01-27T22:01:06;3.03;;;1.30;;
77722;SDS011;67811;42.656;23.394;2024-01-27T22:05:11;4.87;;;2.03;;
77722;SDS011;67811;42.656;23.394;2024-01-27T22:09:16;4.23;;;1.87;;
77722;SDS011;67811;42.656;23.394;2024-01-27T22:13:22;4.07;;;1.50;;
77722;SDS011;67811;42.656;23.394;2024-01-27T22:17:27;6.33;;;2.40;;
77722;SDS011;67811;42.656;23.394;2024-01-27T22:21:32;3.47;;;1.30;;
77722;SDS011;67811;42.656;23.394;2024-01-27T22:25:38;3.53;;;1.70;;
77722;SDS011;67811;42.656;23.394;2024-01-27T22:29:44;3.53;;;1.60;;
77722;SDS011;67811;42.656;23.394;2024-01-27T22:33:49;4.40;;;1.40;;
77722;SDS011;67811;42.656;23.394;2024-01-27T22:37:54;3.70;;;1.70;;
77722;SDS011;67811;42.656;23.394;2024-01-27T22:42:00;2.30;;;1.07;;
77722;SDS011;67811;42.656;23.394;2024-01-27T22:46:05;3.30;;;1.63;;
77722;SDS011;67811;42.656;23.394;2024-01-27T22:50:10;3.97;;;1.80;;
77722;SDS011;67811;42.656;23.394;2024-01-27T22:54:16;3.10;;;1.50;;
77722;SDS011;67811;42.656;23.394;2024-01-27T22:58:21;2.40;;;1.27;;
77722;SDS011;67811;42.656;23.394;2024-01-27T23:02:26;3.93;;;1.47;;
77722;SDS011;67811;42.656;23.394;2024-01-27T23:06:31;4.67;;;1.80;;
77722;SDS011;67811;42.656;23.394;2024-01-27T23:10:37;5.90;;;1.93;;
77722;SDS011;67811;42.656;23.394;2024-01-27T23:14:42;2.90;;;1.20;;
77722;SDS011;67811;42.656;23.394;2024-01-27T23:18:47;5.67;;;2.30;;
77722;SDS011;67811;42.656;23.394;2024-01-27T23:22:52;3.37;;;1.70;;
77722;SDS011;67811;42.656;23.394;2024-01-27T23:26:58;3.83;;;2.00;;
77722;SDS011;67811;42.656;23.394;2024-01-27T23:31:03;3.27;;;1.40;;
77722;SDS011;67811;42.656;23.394;2024-01-27T23:35:08;2.30;;;1.30;;
77722;SDS011;67811;42.656;23.394;2024-01-27T23:39:14;4.63;;;1.80;;
77722;SDS011;67811;42.656;23.394;2024-01-27T23:43:19;3.70;;;2.10;;
77722;SDS011;67811;42.656;23.394;2024-01-27T23:47:24;3.50;;;1.90;;
77722;SDS011;67811;42.656;23.394;2024-01-27T23:51:29;3.77;;;1.93;;
77722;SDS011;67811;42.656;23.394;2024-01-27T23:55:35;4.47;;;2.17;;
77722;SDS011;67811;42.656;23.394;2024-01-27T23:59:40;7.28;;;1.67;;
